Time;durP1;ratioP1;P1;durP2;ratioP2;P2;SDS_P1;SDS_P2;PMS_P1;PMS_P2;Temp;Humidity;BMP_temperature;BMP_pressure;BME280_temperature;BME280_humidity;BME280_pressure;Samples;Min_cycle;Max_cycle;Signal;HPM_P1;HPM_P2
2023/10/19 00:00:33;;;;;;;3.47;2.00;;;;;;;20.01;47.20;99385.06;4985759;28;20035;-75
2023/10/19 00:03:02;;;;;;;4.18;2.70;;;;;;;19.90;47.29;99356.88;4986172;28;20515;-75
2023/10/19 00:05:29;;;;;;;2.67;2.30;;;;;;;19.99;47.35;99369.09;4984912;28;20058;-74
2023/10/19 00:07:57;;;;;;;3.28;2.28;;;;;;;19.98;47.64;99367.44;5002229;28;20026;-74
2023/10/19 00:10:23;;;;;;;3.17;2.35;;;;;;;19.98;47.31;99365.56;4986027;28;20050;-75
2023/10/19 00:12:57;;;;;;;3.83;2.40;;;;;;;19.82;47.31;99341.75;4986009;28;20037;-75
2023/10/19 00:15:24;;;;;;;3.40;2.40;;;;;;;19.89;47.46;99350.66;4986309;28;20026;-75
2023/10/19 00:17:53;;;;;;;3.47;2.65;;;;;;;19.95;47.39;99352.50;4985925;28;20269;-75
2023/10/19 00:20:50;;;;;;;2.92;2.35;;;;;;;19.20;47.29;99220.00;4983339;28;20057;-75
2023/10/19 00:23:24;;;;;;;2.17;1.83;;;;;;;19.90;47.45;99327.22;5025067;28;20041;-75
2023/10/19 00:25:50;;;;;;;3.15;2.60;;;;;;;19.73;47.55;99300.72;5046602;28;20029;-75
2023/10/19 00:28:17;;;;;;;3.15;2.58;;;;;;;19.91;47.87;99327.00;5062702;28;20056;-75
2023/10/19 00:30:44;;;;;;;3.47;2.20;;;;;;;19.64;47.67;99268.81;5063862;28;20020;-75
2023/10/19 00:33:18;;;;;;;2.83;2.33;;;;;;;19.90;47.34;99313.72;5062337;28;20024;-75
2023/10/19 00:38:28;;;;;;;2.53;2.17;;;;;;;19.58;47.77;99275.88;5047397;28;20052;-75
2023/10/19 00:40:58;;;;;;;2.67;2.20;;;;;;;19.87;47.85;99320.38;5062159;28;20086;-75
2023/10/19 00:43:34;;;;;;;2.65;2.05;;;;;;;19.84;47.71;99318.13;5046295;28;20031;-74
2023/10/19 00:46:05;;;;;;;2.45;2.25;;;;;;;19.85;47.48;99311.66;5061517;28;20029;-75
2023/10/19 00:48:32;;;;;;;3.83;2.30;;;;;;;19.81;47.63;99304.22;5046571;28;20048;-74
2023/10/19 00:51:08;;;;;;;2.15;1.95;;;;;;;19.84;47.68;99307.31;5063294;28;20013;-75
2023/10/19 00:53:37;;;;;;;3.45;2.30;;;;;;;19.65;47.72;99273.97;5063371;28;20033;-74
2023/10/19 00:56:05;;;;;;;2.80;2.10;;;;;;;19.59;47.77;99264.03;5061953;28;20078;-75
2023/10/19 00:58:35;;;;;;;3.35;2.90;;;;;;;19.60;47.71;99272.94;5062934;28;20032;-75
2023/10/19 01:01:05;;;;;;;2.47;2.20;;;;;;;19.60;47.58;99264.84;5043224;28;20483;-75
2023/10/19 01:03:35;;;;;;;2.20;1.95;;;;;;;19.80;47.58;99289.91;5063516;28;20029;-74
2023/10/19 01:06:05;;;;;;;2.65;2.10;;;;;;;19.78;47.64;99294.69;5044218;28;20063;-75
2023/10/19 01:08:40;;;;;;;2.25;1.85;;;;;;;19.78;47.67;99289.28;5061850;28;20029;-75
2023/10/19 01:11:10;;;;;;;3.28;2.20;;;;;;;19.77;47.71;99287.63;5066178;28;20052;-75
2023/10/19 01:13:35;;;;;;;2.53;2.13;;;;;;;19.77;48.02;99284.13;5066155;28;20029;-75
2023/10/19 01:16:01;;;;;;;2.88;2.05;;;;;;;19.76;47.67;99285.16;5048978;28;20088;-74
2023/10/19 01:18:29;;;;;;;3.65;2.20;;;;;;;19.66;47.75;99278.31;5049057;28;20047;-74
2023/10/19 01:20:55;;;;;;;2.45;2.00;;;;;;;19.65;48.23;99276.69;5065351;28;20052;-75
2023/10/19 01:23:21;;;;;;;2.60;1.98;;;;;;;19.59;47.87;99266.72;5049255;28;20029;-74
2023/10/19 01:29:13;;;;;;;3.38;2.50;;;;;;;19.72;47.83;99290.97;5065750;28;20028;-75
2023/10/19 01:31:29;;;;;;;2.92;2.22;;;;;;;19.72;48.21;99279.38;5057448;28;20036;-75
2023/10/19 01:33:58;;;;;;;2.67;2.00;;;;;;;19.71;47.69;99286.63;5065088;28;20056;-75
2023/10/19 01:36:24;;;;;;;2.70;2.15;;;;;;;19.63;47.69;99270.69;5048039;28;20029;-75
2023/10/19 01:39:09;;;;;;;2.63;2.15;;;;;;;19.68;47.82;99281.66;5048408;28;20060;-75
2023/10/19 01:41:34;;;;;;;2.78;2.08;;;;;;;19.59;47.94;99264.03;5064409;28;20044;-75
2023/10/19 01:44:06;;;;;;;3.45;2.30;;;;;;;19.45;48.01;99233.59;5066489;28;20036;-74
2023/10/19 01:46:33;;;;;;;2.53;1.95;;;;;;;19.67;48.33;99266.53;5064814;28;20028;-75
2023/10/19 01:48:59;;;;;;;3.15;2.55;;;;;;;19.66;47.90;99256.75;5064928;28;20032;-75
2023/10/19 01:51:26;;;;;;;2.15;1.80;;;;;;;19.66;48.09;99250.53;5047110;28;20039;-75
2023/10/19 01:53:52;;;;;;;2.40;2.20;;;;;;;19.65;48.28;99246.19;5047898;28;20101;-75
2023/10/19 01:56:17;;;;;;;2.30;1.83;;;;;;;19.65;48.23;99232.72;5048223;28;20033;-74
2023/10/19 01:58:46;;;;;;;2.40;2.08;;;;;;;19.39;48.00;99193.19;5067465;28;20036;-75
2023/10/19 02:03:44;;;;;;;3.05;2.00;;;;;;;19.63;48.12;99229.41;5066492;28;20037;-75
2023/10/19 02:06:16;;;;;;;2.88;2.00;;;;;;;19.63;48.19;99234.81;5062476;28;20036;-74
2023/10/19 02:08:52;;;;;;;2.42;1.85;;;;;;;19.56;47.84;99221.31;5049135;28;20025;-74
2023/10/19 02:11:22;;;;;;;2.97;2.03;;;;;;;19.61;48.11;99232.31;5048200;28;20041;-75
2023/10/19 02:13:51;;;;;;;3.47;2.38;;;;;;;19.61;48.37;99226.09;5047388;28;20027;-75
2023/10/19 02:16:21;;;;;;;2.33;2.13;;;;;;;19.60;48.27;99221.72;5064302;28;20025;-74
2023/10/19 02:18:46;;;;;;;2.20;2.00;;;;;;;19.58;48.09;99216.56;5048227;28;20108;-75
2023/10/19 02:21:14;;;;;;;2.40;2.10;;;;;;;19.48;48.40;99200.00;5061493;28;20394;-75
2023/10/19 02:23:43;;;;;;;3.55;2.47;;;;;;;19.58;48.53;99218.41;5048315;28;20032;-75
2023/10/19 02:26:09;;;;;;;;;;;;;;;19.58;48.34;99221.09;5066052;28;20031;-75
2023/10/19 02:28:39;;;;;;;3.15;2.10;;;;;;;19.33;48.22;99169.81;5047623;28;19909;-74
2023/10/19 02:31:14;;;;;;;2.72;2.25;;;;;;;19.34;48.43;99174.16;5064495;28;20039;-75
2023/10/19 02:33:39;;;;;;;2.65;2.00;;;;;;;19.49;48.34;99205.16;5062080;28;20032;-75
2023/10/19 02:36:12;;;;;;;2.22;2.00;;;;;;;19.53;48.44;99205.56;5062915;28;20092;-75
2023/10/19 02:38:38;;;;;;;4.85;2.42;;;;;;;19.31;48.23;99167.31;5064543;28;20052;-75
2023/10/19 02:41:03;;;;;;;2.05;1.80;;;;;;;19.33;48.29;99170.63;5064100;28;20387;-75
2023/10/19 02:43:32;;;;;;;2.80;2.15;;;;;;;19.52;48.59;99205.78;5065197;28;20537;-74
2023/10/19 02:45:57;;;;;;;2.95;2.47;;;;;;;19.51;48.46;99204.13;5064184;28;20466;-75
2023/10/19 02:48:24;;;;;;;3.03;1.80;;;;;;;19.51;48.57;99198.75;5064454;28;20055;-75
2023/10/19 02:50:49;;;;;;;2.40;2.20;;;;;;;19.45;48.72;99197.72;5059716;28;20051;-75
2023/10/19 02:53:14;;;;;;;2.38;1.92;;;;;;;19.42;48.69;99190.06;5065426;28;20029;-75
2023/10/19 02:55:40;;;;;;;2.75;1.88;;;;;;;19.13;48.54;99143.75;5046896;28;20032;-75
2023/10/19 02:58:06;;;;;;;2.03;1.70;;;;;;;19.41;48.69;99186.56;5050016;28;20088;-75
2023/10/19 03:00:34;;;;;;;1.73;1.63;;;;;;;19.31;48.64;99163.78;5047046;28;20048;-75
2023/10/19 03:03:00;;;;;;;4.20;2.17;;;;;;;19.49;48.59;99197.06;5064685;28;20045;-75
2023/10/19 03:05:26;;;;;;;2.25;1.90;;;;;;;19.29;48.28;99182.88;5046555;28;20056;-75
2023/10/19 03:07:52;;;;;;;2.33;2.08;;;;;;;19.48;48.52;99189.22;5065216;28;20020;-74
2023/10/19 03:11:03;;;;;;;2.30;2.10;;;;;;;19.48;48.65;99194.59;5046806;28;20490;-75
2023/10/19 03:13:09;;;;;;;2.03;1.80;;;;;;;19.47;48.58;99190.25;5059471;28;20037;-75
2023/10/19 03:15:35;;;;;;;2.75;2.13;;;;;;;19.46;48.34;99189.44;5046803;28;20060;-75
2023/10/19 03:18:01;;;;;;;2.67;2.00;;;;;;;19.46;48.56;99185.91;5047201;28;20036;-75
2023/10/19 03:20:33;;;;;;;2.47;2.10;;;;;;;19.45;48.37;99181.53;5062954;28;20085;-75
2023/10/19 03:23:01;;;;;;;2.17;1.80;;;;;;;19.45;48.54;99195.88;5064025;28;20033;-76
2023/10/19 03:28:11;;;;;;;2.55;2.35;;;;;;;19.23;48.63;99157.59;5049913;28;20087;-75
2023/10/19 03:30:40;;;;;;;3.20;2.05;;;;;;;19.35;48.63;99171.22;5047002;28;20013;-75
2023/10/19 03:33:08;;;;;;;2.25;1.80;;;;;;;19.21;48.72;99166.94;5046140;28;20033;-75
2023/10/19 03:35:36;;;;;;;2.72;2.00;;;;;;;19.44;48.70;99187.97;5045739;28;20029;-75
2023/10/19 03:38:07;;;;;;;2.78;2.13;;;;;;;19.44;48.74;99191.50;5063885;28;20044;-74
2023/10/19 03:40:34;;;;;;;1.88;1.60;;;;;;;19.44;48.77;99188.81;5065735;28;20024;-76
2023/10/19 03:42:59;;;;;;;1.88;1.67;;;;;;;19.25;48.79;99162.78;5046650;28;20029;-75
2023/10/19 03:45:26;;;;;;;2.47;1.98;;;;;;;19.39;48.63;99174.31;5064621;28;20079;-76
2023/10/19 03:47:55;;;;;;;2.70;2.03;;;;;;;19.45;48.55;99179.69;5046924;28;20029;-74
2023/10/19 03:50:21;;;;;;;2.25;1.70;;;;;;;19.33;48.57;99161.72;5063413;28;20039;-75
2023/10/19 03:52:46;;;;;;;3.17;2.03;;;;;;;19.18;48.82;99135.03;5063710;28;20025;-76
2023/10/19 03:55:14;;;;;;;2.42;1.63;;;;;;;19.47;48.45;99182.16;5045917;28;20104;-75
2023/10/19 03:57:41;;;;;;;2.35;2.05;;;;;;;19.39;48.85;99161.69;5066171;28;20013;-75
2023/10/19 04:00:18;;;;;;;2.00;1.80;;;;;;;19.42;48.81;99169.34;5063847;28;20024;-75
2023/10/19 04:02:44;;;;;;;2.47;1.60;;;;;;;19.45;48.58;99165.38;5063666;28;20017;-75
2023/10/19 04:05:14;;;;;;;2.35;2.10;;;;;;;19.45;48.62;99158.13;5061196;28;20028;-74
2023/10/19 04:07:41;;;;;;;3.10;2.00;;;;;;;19.55;48.83;99173.03;5062352;28;20029;-75
2023/10/19 04:12:35;;;;;;;2.75;2.22;;;;;;;19.57;48.83;99160.97;5062315;28;20466;-74
2023/10/19 04:15:09;;;;;;;2.60;1.90;;;;;;;19.40;49.19;99120.19;5063732;28;20055;-75
2023/10/19 04:17:36;;;;;;;2.45;1.83;;;;;;;19.65;48.86;99158.03;5045099;28;20046;-74
2023/10/19 04:20:09;;;;;;;1.92;1.75;;;;;;;19.43;49.06;99116.25;5045297;28;20056;-74
2023/10/19 04:22:34;;;;;;;2.53;1.45;;;;;;;19.62;49.34;99136.91;5045307;28;20521;-75
2023/10/19 04:25:01;;;;;;;2.97;2.05;;;;;;;19.53;49.32;99113.91;5062053;28;20039;-75
2023/10/19 04:27:26;;;;;;;2.28;1.80;;;;;;;19.66;49.48;99127.34;5062504;28;20036;-77
2023/10/19 04:29:52;;;;;;;3.38;1.92;;;;;;;19.76;49.54;99131.47;5061713;28;20036;-76
2023/10/19 04:32:25;;;;;;;2.35;1.90;;;;;;;19.70;49.30;99108.88;5045378;28;20025;-76
2023/10/19 04:34:51;;;;;;;2.03;1.83;;;;;;;19.42;49.48;99069.63;5045318;28;20524;-73
2023/10/19 04:37:18;;;;;;;2.13;1.70;;;;;;;19.88;49.13;99143.19;5062067;28;20033;-75
2023/10/19 04:39:46;;;;;;;2.65;1.75;;;;;;;19.73;49.05;99106.56;5062681;28;20028;-75
2023/10/19 04:42:12;;;;;;;2.38;1.80;;;;;;;19.94;49.17;99128.84;5060628;28;20116;-74
2023/10/19 04:44:37;;;;;;;2.78;1.90;;;;;;;19.93;49.03;99124.50;5065032;28;20516;-74
2023/10/19 04:47:03;;;;;;;3.15;2.35;;;;;;;20.00;49.33;99124.44;5049752;28;20058;-74
2023/10/19 04:49:28;;;;;;;1.92;1.73;;;;;;;19.76;49.45;99086.44;5047241;28;20040;-74
2023/10/19 04:51:54;;;;;;;2.03;1.70;;;;;;;20.06;49.16;99129.78;5049180;28;20029;-75
2023/10/19 04:54:19;;;;;;;2.72;1.88;;;;;;;20.11;49.21;99131.81;5066457;28;20032;-75
2023/10/19 04:56:44;;;;;;;1.70;1.60;;;;;;;19.97;49.29;99109.53;5048398;28;20035;-74
2023/10/19 04:59:09;;;;;;;2.10;1.50;;;;;;;19.54;49.28;99034.72;5067316;28;20040;-76
2023/10/19 05:01:35;;;;;;;1.55;1.45;;;;;;;20.20;49.08;99128.63;5064907;28;20049;-74
2023/10/19 05:04:00;;;;;;;3.05;2.00;;;;;;;20.00;49.21;99092.06;5065152;28;20043;-74
2023/10/19 05:06:25;;;;;;;2.50;1.73;;;;;;;20.05;49.03;99094.91;5067504;28;20135;-74
2023/10/19 05:08:52;;;;;;;1.95;1.58;;;;;;;20.31;48.77;99128.97;5062598;28;20048;-74
2023/10/19 05:11:17;;;;;;;2.25;1.77;;;;;;;20.22;48.80;99115.75;5065947;28;20037;-74
2023/10/19 05:13:42;;;;;;;2.28;1.52;;;;;;;20.26;49.00;99113.41;5066682;28;20021;-74
2023/10/19 05:16:08;;;;;;;2.22;1.63;;;;;;;20.44;48.68;99135.06;5065272;28;20089;-74
2023/10/19 05:18:34;;;;;;;1.60;1.50;;;;;;;20.23;48.32;99092.28;5066767;28;20382;-75
2023/10/19 05:21:00;;;;;;;1.90;1.67;;;;;;;20.30;48.43;99103.00;5064851;28;20044;-76
2023/10/19 05:23:27;;;;;;;1.67;1.38;;;;;;;20.58;48.08;99134.97;5066703;28;20025;-75
2023/10/19 05:25:54;;;;;;;3.08;1.70;;;;;;;20.64;48.28;99140.28;5065200;28;20087;-74
2023/10/19 05:28:21;;;;;;;1.60;1.40;;;;;;;20.70;47.90;99136.72;5045783;28;20082;-75
2023/10/19 05:30:48;;;;;;;1.83;1.50;;;;;;;20.75;48.04;99140.63;5048840;28;20028;-75
2023/10/19 05:33:14;;;;;;;1.40;1.20;;;;;;;20.65;47.93;99112.25;5048341;28;20098;-75
2023/10/19 05:35:43;;;;;;;1.88;1.58;;;;;;;20.78;47.54;99124.81;5064484;28;20378;-74
2023/10/19 05:38:08;;;;;;;1.98;1.77;;;;;;;20.71;47.50;99114.06;5048742;28;20025;-75
2023/10/19 05:40:35;;;;;;;1.52;1.38;;;;;;;20.93;47.25;99143.31;5064021;28;20058;-74
2023/10/19 05:43:01;;;;;;;1.67;1.50;;;;;;;20.99;47.46;99149.72;5066216;28;20036;-74
2023/10/19 05:45:28;;;;;;;2.45;1.75;;;;;;;21.01;47.41;99147.63;5048544;28;20378;-74
2023/10/19 05:47:53;;;;;;;2.60;1.30;;;;;;;21.03;46.94;99154.44;5064392;28;20028;-75
2023/10/19 05:50:19;;;;;;;1.55;1.38;;;;;;;20.95;46.80;99142.06;5065104;28;20771;-74
2023/10/19 05:52:45;;;;;;;4.45;1.60;;;;;;;21.02;46.79;99151.97;5048552;28;20036;-74
2023/10/19 05:55:11;;;;;;;2.03;1.50;;;;;;;21.03;46.94;99164.44;5064089;28;20029;-74
2023/10/19 05:57:40;;;;;;;2.15;1.60;;;;;;;20.28;46.92;99049.25;5049804;28;20039;-74
2023/10/19 06:00:12;;;;;;;2.47;1.55;;;;;;;20.83;47.18;99146.56;5064781;28;20039;-74
2023/10/19 06:02:47;;;;;;;3.67;1.35;;;;;;;20.89;46.92;99161.84;5048399;28;20051;-74
2023/10/19 06:05:16;;;;;;;1.83;1.60;;;;;;;20.95;47.21;99179.88;5047245;28;20035;-74
2023/10/19 06:07:46;;;;;;;1.85;1.20;;;;;;;20.94;47.09;99172.00;5064755;28;20028;-74
2023/10/19 06:10:15;;;;;;;2.28;1.42;;;;;;;20.92;47.23;99177.63;5047154;28;20482;-74
2023/10/19 06:12:43;;;;;;;1.75;1.35;;;;;;;20.85;47.30;99171.47;5064736;28;20509;-74
2023/10/19 06:15:10;;;;;;;2.30;1.23;;;;;;;20.91;47.52;99177.84;5064468;28;20021;-74
2023/10/19 06:17:36;;;;;;;1.95;1.55;;;;;;;20.91;47.37;99194.88;5045509;28;20113;-74
2023/10/19 06:20:01;;;;;;;2.38;1.50;;;;;;;20.68;47.25;99149.59;5046920;28;20021;-74
2023/10/19 06:22:28;;;;;;;3.25;1.60;;;;;;;20.88;47.31;99184.53;5047740;28;20025;-74
2023/10/19 06:24:53;;;;;;;3.55;1.60;;;;;;;20.58;47.30;99134.97;5047874;28;20112;-74
2023/10/19 06:27:19;;;;;;;2.95;1.70;;;;;;;20.72;47.59;99164.31;5064134;28;20039;-75
2023/10/19 06:29:44;;;;;;;1.83;1.50;;;;;;;20.78;47.70;99175.28;5065267;28;20031;-74
2023/10/19 06:32:09;;;;;;;1.88;1.25;;;;;;;20.83;47.38;99189.78;5065477;28;20027;-74
2023/10/19 06:34:35;;;;;;;1.92;1.40;;;;;;;20.79;47.30;99182.34;5064291;28;20024;-74
2023/10/19 06:37:00;;;;;;;1.75;1.40;;;;;;;20.81;47.32;99191.03;5064026;28;20025;-75
2023/10/19 06:39:26;;;;;;;2.75;2.03;;;;;;;20.74;47.68;99180.31;5065361;28;20025;-74
2023/10/19 06:41:52;;;;;;;3.53;1.42;;;;;;;20.86;47.32;99202.03;5047067;28;20021;-74
2023/10/19 06:44:17;;;;;;;1.50;1.38;;;;;;;20.86;47.26;99210.13;5047070;28;20027;-74
2023/10/19 06:46:43;;;;;;;1.83;1.42;;;;;;;20.80;47.20;99197.50;5043666;28;20033;-74
2023/10/19 06:49:08;;;;;;;2.00;1.60;;;;;;;20.84;47.34;99207.63;5064818;28;20044;-74
2023/10/19 06:51:34;;;;;;;2.88;1.50;;;;;;;20.83;47.56;99211.38;5047147;28;20055;-75
2023/10/19 06:53:59;;;;;;;1.58;1.42;;;;;;;20.83;47.35;99210.56;5064569;28;20021;-74
2023/10/19 06:56:25;;;;;;;1.98;1.27;;;;;;;20.76;47.30;99193.59;5045295;28;20021;-74
2023/10/19 06:58:50;;;;;;;2.67;1.20;;;;;;;20.82;47.47;99206.22;5048285;28;20032;-74
2023/10/19 07:01:22;;;;;;;2.22;1.38;;;;;;;20.80;47.61;99206.41;5063152;28;20025;-74
2023/10/19 07:03:48;;;;;;;2.03;1.50;;;;;;;20.58;47.31;99173.59;5064563;28;20075;-74
2023/10/19 07:06:13;;;;;;;2.63;1.45;;;;;;;20.54;47.45;99176.97;5045841;28;20386;-74
2023/10/19 07:08:40;;;;;;;1.52;1.30;;;;;;;20.72;47.69;99201.28;5064851;28;20033;-74
2023/10/19 07:11:07;;;;;;;1.55;1.00;;;;;;;20.79;47.44;99217.47;5062936;28;20045;-74
2023/10/19 07:13:33;;;;;;;1.30;1.15;;;;;;;20.78;47.70;99207.72;5046557;28;20025;-74
2023/10/19 07:15:58;;;;;;;1.58;1.40;;;;;;;20.78;47.36;99208.53;5064580;28;20433;-74
2023/10/19 07:18:24;;;;;;;2.65;1.48;;;;;;;20.63;47.56;99189.94;5044656;28;20029;-74
2023/10/19 07:20:49;;;;;;;2.30;1.10;;;;;;;20.77;47.47;99222.25;5062567;28;20024;-74
2023/10/19 07:23:26;;;;;;;2.60;1.38;;;;;;;20.71;47.55;99205.88;5064606;28;20080;-74
2023/10/19 07:25:55;;;;;;;2.00;1.40;;;;;;;20.78;47.77;99221.22;5063004;28;20033;-74
2023/10/19 07:28:21;;;;;;;1.65;1.20;;;;;;;20.74;47.75;99220.81;5063119;28;20043;-74
2023/10/19 07:30:48;;;;;;;3.70;2.20;;;;;;;20.64;47.73;99213.19;5046012;28;20017;-74
2023/10/19 07:33:17;;;;;;;2.55;1.30;;;;;;;20.73;47.49;99243.47;5063112;28;20036;-74
2023/10/19 07:35:46;;;;;;;1.25;1.13;;;;;;;20.74;47.35;99244.31;5063184;28;20033;-74
2023/10/19 07:38:13;;;;;;;2.83;1.38;;;;;;;20.70;47.89;99233.94;5062977;28;20547;-74
2023/10/19 07:40:38;;;;;;;1.60;1.40;;;;;;;20.75;47.75;99241.38;5062607;28;20033;-74
2023/10/19 07:43:03;;;;;;;1.67;1.23;;;;;;;20.40;47.62;99187.03;5063747;28;20020;-75
2023/10/19 07:45:31;;;;;;;1.60;1.25;;;;;;;20.54;47.93;99212.06;5062837;28;20397;-74
2023/10/19 07:47:56;;;;;;;1.33;1.20;;;;;;;20.69;47.55;99236.88;5063059;28;20119;-75
2023/10/19 07:50:22;;;;;;;1.67;1.20;;;;;;;20.72;47.64;99239.09;5045642;28;20568;-74
2023/10/19 07:52:50;;;;;;;2.38;1.40;;;;;;;20.68;47.53;99238.72;5045918;28;20031;-74
2023/10/19 07:55:16;;;;;;;1.50;1.30;;;;;;;20.64;47.93;99225.88;5060561;28;20033;-74
2023/10/19 07:57:42;;;;;;;2.28;1.40;;;;;;;20.71;47.98;99238.28;5062261;28;20044;-74
2023/10/19 08:00:09;;;;;;;2.10;1.40;;;;;;;20.71;47.95;99245.56;5061854;28;20056;-74
2023/10/19 08:02:35;;;;;;;1.55;1.13;;;;;;;20.57;47.95;99228.66;5046988;28;20599;-74
2023/10/19 08:05:04;;;;;;;1.70;1.10;;;;;;;20.70;47.92;99246.63;5044460;28;20025;-74
2023/10/19 08:07:29;;;;;;;1.67;1.30;;;;;;;20.67;47.98;99245.16;5063225;28;20021;-74
2023/10/19 08:09:58;;;;;;;1.88;1.10;;;;;;;20.62;48.19;99233.38;5062069;28;20040;-74
2023/10/19 08:12:24;;;;;;;1.92;1.30;;;;;;;20.69;48.07;99242.28;5045723;28;20025;-75
2023/10/19 08:14:49;;;;;;;2.17;1.35;;;;;;;20.54;48.11;99217.47;5063841;28;20111;-75
2023/10/19 08:17:15;;;;;;;1.63;1.40;;;;;;;20.66;48.37;99245.41;5060927;28;20029;-75
2023/10/19 08:19:40;;;;;;;1.27;1.08;;;;;;;20.65;47.98;99238.34;5058163;28;20041;-74
2023/10/19 08:22:06;;;;;;;1.63;1.02;;;;;;;20.60;48.28;99233.63;5063396;28;20608;-75
2023/10/19 08:24:34;;;;;;;2.58;1.23;;;;;;;20.63;48.61;99241.25;5063187;28;20063;-75
2023/10/19 08:27:00;;;;;;;1.70;1.50;;;;;;;20.46;48.43;99216.66;5061767;28;20057;-75
2023/10/19 08:29:26;;;;;;;2.33;1.67;;;;;;;20.63;48.63;99249.38;5045401;28;20060;-74
2023/10/19 08:31:51;;;;;;;2.53;1.40;;;;;;;20.62;48.55;99242.31;5045289;28;20111;-74
2023/10/19 08:34:17;;;;;;;1.35;1.10;;;;;;;20.62;48.69;99236.09;5063142;28;20033;-74
2023/10/19 08:36:42;;;;;;;1.58;1.20;;;;;;;20.43;48.71;99211.72;5045106;28;20078;-74
2023/10/19 08:39:09;;;;;;;2.55;1.10;;;;;;;20.65;48.35;99238.34;5062524;28;20470;-75
2023/10/19 08:41:35;;;;;;;1.83;1.35;;;;;;;20.52;48.45;99216.84;5045274;28;20025;-74
2023/10/19 08:44:10;;;;;;;1.60;1.35;;;;;;;20.64;48.38;99239.38;5062212;28;20093;-75
2023/10/19 08:46:45;;;;;;;2.25;1.52;;;;;;;20.64;48.82;99242.91;5059098;28;20036;-74
2023/10/19 08:49:12;;;;;;;1.48;1.10;;;;;;;20.53;48.48;99230.13;5060479;28;20028;-74
2023/10/19 08:51:38;;;;;;;2.38;1.20;;;;;;;20.65;48.35;99252.69;5045033;28;20021;-74
2023/10/19 08:54:05;;;;;;;1.98;1.10;;;;;;;20.66;48.72;99265.13;5062384;28;20036;-75
2023/10/19 08:56:30;;;;;;;1.33;1.10;;;;;;;20.19;48.41;99183.66;5061308;28;20021;-74
2023/10/19 08:58:56;;;;;;;1.02;0.93;;;;;;;20.64;48.61;99248.31;5046380;28;20120;-74
2023/10/19 09:01:23;;;;;;;1.52;1.10;;;;;;;20.69;48.29;99251.19;5061827;28;20033;-75
2023/10/19 09:03:48;;;;;;;2.17;1.17;;;;;;;20.70;48.47;99246.63;5061899;28;20097;-75
2023/10/19 09:06:15;;;;;;;1.58;1.30;;;;;;;20.71;48.53;99246.38;5043545;28;20115;-74
2023/10/19 09:08:40;;;;;;;1.83;1.17;;;;;;;20.72;48.55;99247.22;5045850;28;20021;-74
2023/10/19 09:11:11;;;;;;;1.65;1.20;;;;;;;20.72;48.65;99247.22;5061527;28;20059;-74
2023/10/19 09:13:52;;;;;;;1.63;1.52;;;;;;;20.72;48.37;99236.41;5045755;28;20032;-75
2023/10/19 09:16:20;;;;;;;1.83;1.30;;;;;;;20.70;48.41;99233.94;5062686;28;20035;-74
2023/10/19 09:18:46;;;;;;;1.63;1.17;;;;;;;20.73;48.33;99229.97;5061999;28;20032;-74
2023/10/19 09:21:23;;;;;;;1.55;1.17;;;;;;;20.52;48.32;99196.09;5061340;28;20032;-74
2023/10/19 09:23:49;;;;;;;1.10;1.00;;;;;;;20.73;48.17;99224.59;5063079;28;20029;-75
2023/10/19 09:26:16;;;;;;;1.17;1.08;;;;;;;20.78;48.16;99232.03;5061404;28;20025;-74
2023/10/19 09:28:41;;;;;;;1.77;1.50;;;;;;;20.68;48.34;99202.78;5043558;28;20573;-74
2023/10/19 09:31:09;;;;;;;1.48;0.98;;;;;;;20.83;48.29;99226.78;5062793;28;20057;-75
2023/10/19 09:33:35;;;;;;;2.40;1.00;;;;;;;20.77;48.02;99220.34;5046558;28;20032;-74
2023/10/19 09:36:05;;;;;;;2.13;1.38;;;;;;;20.84;48.29;99228.41;5064097;28;20041;-74
2023/10/19 09:38:30;;;;;;;2.20;1.20;;;;;;;20.83;48.12;99222.19;5045929;28;20021;-75
2023/10/19 09:40:59;;;;;;;1.48;1.00;;;;;;;20.69;48.23;99201.75;5048411;28;20059;-75
2023/10/19 09:43:29;;;;;;;;;;;;;;;20.85;48.30;99227.34;5047125;28;20052;-74
2023/10/19 09:46:00;;;;;;;1.45;1.30;;;;;;;20.84;47.93;99223.00;5047817;28;19939;-74
2023/10/19 09:48:26;;;;;;;2.13;1.40;;;;;;;20.65;48.22;99184.34;5065728;28;20493;-74
2023/10/19 09:50:55;;;;;;;2.35;1.10;;;;;;;20.77;48.34;99206.03;5048030;28;20017;-74
2023/10/19 09:53:23;;;;;;;1.42;0.90;;;;;;;20.85;47.98;99219.25;5065331;28;20024;-74
2023/10/19 09:55:50;;;;;;;2.33;1.75;;;;;;;20.85;47.88;99217.38;5064630;28;20029;-74
2023/10/19 09:58:21;;;;;;;2.00;1.20;;;;;;;20.86;47.83;99232.56;5068287;28;20032;-74
2023/10/19 10:00:50;;;;;;;2.45;1.40;;;;;;;20.70;47.90;99203.41;5060546;28;20033;-74
2023/10/19 10:03:47;;;;;;;1.52;1.05;;;;;;;20.90;48.10;99239.19;5061774;28;20542;-74
2023/10/19 10:06:14;;;;;;;2.22;1.30;;;;;;;20.92;47.77;99237.06;5062600;28;20067;-75
2023/10/19 10:08:44;;;;;;;2.95;1.00;;;;;;;20.94;48.10;99234.97;5065162;28;20025;-74
2023/10/19 10:11:13;;;;;;;1.63;1.10;;;;;;;20.97;47.63;99234.50;5064293;28;20195;-75
2023/10/19 10:13:41;;;;;;;1.90;1.30;;;;;;;21.01;47.92;99231.38;5047557;28;20033;-74
2023/10/19 10:16:06;;;;;;;2.15;1.30;;;;;;;21.03;47.75;99223.88;5065457;28;20063;-75
2023/10/19 10:18:32;;;;;;;2.33;1.27;;;;;;;20.89;47.78;99205.06;5064511;28;20024;-74
2023/10/19 10:21:16;;;;;;;3.38;1.25;;;;;;;20.90;47.78;99189.72;5064275;28;20037;-74
2023/10/19 10:24:14;;;;;;;4.18;1.30;;;;;;;21.16;48.02;99221.88;5064728;28;20576;-74
2023/10/19 10:27:00;;;;;;;2.90;1.25;;;;;;;21.20;47.73;99222.25;5003795;28;20371;-74
2023/10/19 10:29:26;;;;;;;2.80;1.55;;;;;;;21.22;47.60;99212.84;5062952;28;20029;-74
2023/10/19 10:31:52;;;;;;;2.83;1.20;;;;;;;21.26;47.80;99207.00;5065595;28;20013;-75
2023/10/19 10:34:33;;;;;;;1.65;1.20;;;;;;;21.29;47.76;99209.25;5047299;28;20044;-74
2023/10/19 10:37:03;;;;;;;2.65;1.45;;;;;;;21.31;47.71;99210.66;5061938;28;20112;-75
2023/10/19 10:39:30;;;;;;;3.92;1.60;;;;;;;21.35;47.88;99209.19;5047889;28;20092;-74
2023/10/19 10:42:00;;;;;;;2.42;1.60;;;;;;;21.37;47.41;99209.00;5056957;28;20026;-74
2023/10/19 10:44:55;;;;;;;2.50;1.23;;;;;;;21.40;47.38;99208.50;5064011;28;20470;-74
2023/10/19 10:47:29;;;;;;;2.90;1.33;;;;;;;21.36;47.48;99207.31;5028494;28;20256;-74
2023/10/19 10:49:56;;;;;;;2.72;1.40;;;;;;;21.43;47.58;99217.00;5046109;28;20028;-74
2023/10/19 10:52:29;;;;;;;2.67;1.30;;;;;;;21.49;47.27;99230.66;5065278;28;20084;-74
2023/10/19 10:54:57;;;;;;;3.00;1.40;;;;;;;21.51;47.09;99228.56;5065146;28;20033;-75
2023/10/19 10:57:24;;;;;;;2.90;1.33;;;;;;;21.37;47.07;99198.19;5049031;28;20030;-75
2023/10/19 11:00:09;;;;;;;2.83;1.20;;;;;;;21.55;47.34;99203.56;5063596;28;20020;-74
2023/10/19 11:02:36;;;;;;;2.08;1.17;;;;;;;21.60;46.95;99219.09;5063858;28;20035;-74
2023/10/19 11:05:01;;;;;;;2.70;1.40;;;;;;;21.64;47.29;99215.72;5062459;28;20028;-75
2023/10/19 11:07:27;;;;;;;1.80;1.20;;;;;;;21.69;47.20;99210.44;5063204;28;20124;-74
2023/10/19 11:09:52;;;;;;;3.63;1.67;;;;;;;21.75;47.72;99210.56;5064542;28;20074;-74
2023/10/19 11:12:19;;;;;;;3.15;1.55;;;;;;;21.79;48.09;99207.22;5063614;28;20463;-75
2023/10/19 11:15:01;;;;;;;4.18;1.90;;;;;;;21.78;48.09;99194.72;5064215;28;20031;-75
2023/10/19 11:17:31;;;;;;;2.33;1.50;;;;;;;21.88;47.98;99194.19;5062608;28;20025;-74
2023/10/19 11:19:57;;;;;;;3.95;1.67;;;;;;;21.67;47.91;99152.22;5062848;28;20021;-75
2023/10/19 11:22:26;;;;;;;3.60;1.52;;;;;;;21.95;48.10;99193.00;5064548;28;20478;-75
2023/10/19 11:24:55;;;;;;;;;;;;;;;22.00;47.92;99188.78;5044697;28;20043;-74
2023/10/19 11:27:27;;;;;;;2.90;1.65;;;;;;;21.85;47.96;99163.00;5046392;28;19919;-74
2023/10/19 11:30:04;;;;;;;3.05;1.65;;;;;;;22.05;48.00;99172.72;5046438;28;20021;-74
2023/10/19 11:32:40;;;;;;;3.58;1.52;;;;;;;21.99;47.96;99150.09;5062196;28;20013;-75
2023/10/19 11:35:09;;;;;;;3.55;1.35;;;;;;;22.09;47.89;99152.22;5045622;28;20025;-75
2023/10/19 11:37:47;;;;;;;2.65;1.48;;;;;;;21.87;48.16;99114.88;5064719;28;20044;-74
2023/10/19 11:40:12;;;;;;;3.75;1.40;;;;;;;22.13;47.97;99148.88;5063196;28;20033;-74
2023/10/19 11:42:38;;;;;;;2.40;1.35;;;;;;;22.16;48.01;99150.28;5060013;28;20025;-75
2023/10/19 11:45:06;;;;;;;2.65;1.40;;;;;;;22.12;47.95;99147.19;5063382;28;20036;-74
2023/10/19 11:47:31;;;;;;;3.30;1.40;;;;;;;22.06;47.94;99131.88;5064429;28;20035;-74
2023/10/19 11:49:56;;;;;;;2.53;1.40;;;;;;;22.19;47.72;99150.63;5063185;28;20274;-74
2023/10/19 11:52:22;;;;;;;3.88;1.80;;;;;;;22.21;47.84;99142.28;5064283;28;20032;-74